sensor_id;sensor_type;location;lat;lon;timestamp;temperature;humidity
41080;DHT22;26826;50.718;7.114;2023-08-31T00:06:25;13.50;99.90
41080;DHT22;26826;50.718;7.114;2023-08-31T00:16:26;13.40;99.90
41080;DHT22;26826;50.718;7.114;2023-08-31T00:26:27;13.40;99.90
41080;DHT22;26826;50.718;7.114;2023-08-31T00:36:27;13.40;99.90
41080;DHT22;26826;50.718;7.114;2023-08-31T00:46:28;13.50;99.90
41080;DHT22;26826;50.718;7.114;2023-08-31T00:56:29;13.40;99.90
41080;DHT22;26826;50.718;7.114;2023-08-31T01:06:45;13.40;99.90
41080;DHT22;26826;50.718;7.114;2023-08-31T01:16:49;13.40;99.90
41080;DHT22;26826;50.718;7.114;2023-08-31T01:26:51;13.50;99.90
41080;DHT22;26826;50.718;7.114;2023-08-31T01:36:56;13.40;99.90
41080;DHT22;26826;50.718;7.114;2023-08-31T01:47:01;13.30;99.90
41080;DHT22;26826;50.718;7.114;2023-08-31T01:57:02;13.20;99.90
41080;DHT22;26826;50.718;7.114;2023-08-31T02:07:03;13.10;99.90
41080;DHT22;26826;50.718;7.114;2023-08-31T02:17:03;13.20;99.90
41080;DHT22;26826;50.718;7.114;2023-08-31T02:27:04;12.90;99.90
41080;DHT22;26826;50.718;7.114;2023-08-31T02:37:04;12.70;99.90
41080;DHT22;26826;50.718;7.114;2023-08-31T02:47:05;12.60;99.90
41080;DHT22;26826;50.718;7.114;2023-08-31T02:57:05;12.30;99.90
41080;DHT22;26826;50.718;7.114;2023-08-31T03:07:06;12.20;99.90
41080;DHT22;26826;50.718;7.114;2023-08-31T03:17:06;12.20;99.90
41080;DHT22;26826;50.718;7.114;2023-08-31T03:27:07;12.10;99.90
41080;DHT22;26826;50.718;7.114;2023-08-31T03:37:07;11.90;99.90
41080;DHT22;26826;50.718;7.114;2023-08-31T03:47:08;11.70;99.90
41080;DHT22;26826;50.718;7.114;2023-08-31T03:57:08;11.90;99.90
41080;DHT22;26826;50.718;7.114;2023-08-31T04:07:08;12.10;99.90
41080;DHT22;26826;50.718;7.114;2023-08-31T04:17:09;12.10;99.90
41080;DHT22;26826;50.718;7.114;2023-08-31T04:27:09;12.10;99.90
41080;DHT22;26826;50.718;7.114;2023-08-31T04:37:10;12.10;99.90
41080;DHT22;26826;50.718;7.114;2023-08-31T04:47:10;12.10;99.90
41080;DHT22;26826;50.718;7.114;2023-08-31T04:57:11;12.10;99.90
41080;DHT22;26826;50.718;7.114;2023-08-31T05:07:11;12.00;99.90
41080;DHT22;26826;50.718;7.114;2023-08-31T05:17:12;12.00;99.90
41080;DHT22;26826;50.718;7.114;2023-08-31T05:27:12;11.80;99.90
41080;DHT22;26826;50.718;7.114;2023-08-31T05:37:13;11.80;99.90
41080;DHT22;26826;50.718;7.114;2023-08-31T05:47:14;12.00;99.90
41080;DHT22;26826;50.718;7.114;2023-08-31T05:57:18;12.10;99.90
41080;DHT22;26826;50.718;7.114;2023-08-31T06:07:18;12.30;99.90
41080;DHT22;26826;50.718;7.114;2023-08-31T06:17:19;12.50;99.90
41080;DHT22;26826;50.718;7.114;2023-08-31T06:27:19;12.80;99.90
41080;DHT22;26826;50.718;7.114;2023-08-31T06:37:20;13.20;99.90
41080;DHT22;26826;50.718;7.114;2023-08-31T06:47:20;13.70;99.90
41080;DHT22;26826;50.718;7.114;2023-08-31T06:57:21;14.30;99.90
41080;DHT22;26826;50.718;7.114;2023-08-31T07:07:22;14.70;99.90
41080;DHT22;26826;50.718;7.114;2023-08-31T07:17:23;15.10;99.90
41080;DHT22;26826;50.718;7.114;2023-08-31T07:27:23;15.80;99.90
41080;DHT22;26826;50.718;7.114;2023-08-31T07:37:23;16.60;99.90
41080;DHT22;26826;50.718;7.114;2023-08-31T07:47:24;17.10;99.90
41080;DHT22;26826;50.718;7.114;2023-08-31T07:57:24;18.10;99.90
41080;DHT22;26826;50.718;7.114;2023-08-31T08:07:25;18.30;99.90
41080;DHT22;26826;50.718;7.114;2023-08-31T08:17:25;19.10;99.90
41080;DHT22;26826;50.718;7.114;2023-08-31T08:27:26;18.70;99.90
41080;DHT22;26826;50.718;7.114;2023-08-31T08:37:26;19.90;99.90
41080;DHT22;26826;50.718;7.114;2023-08-31T08:47:29;19.60;99.90
41080;DHT22;26826;50.718;7.114;2023-08-31T08:57:30;18.50;99.90
41080;DHT22;26826;50.718;7.114;2023-08-31T09:07:33;19.40;99.90
41080;DHT22;26826;50.718;7.114;2023-08-31T09:17:41;20.30;99.90
41080;DHT22;26826;50.718;7.114;2023-08-31T09:27:44;20.30;99.90
41080;DHT22;26826;50.718;7.114;2023-08-31T09:37:54;20.90;99.90
41080;DHT22;26826;50.718;7.114;2023-08-31T09:47:55;20.20;99.90
41080;DHT22;26826;50.718;7.114;2023-08-31T09:57:59;20.10;99.90
41080;DHT22;26826;50.718;7.114;2023-08-31T10:08:01;19.90;99.90
41080;DHT22;26826;50.718;7.114;2023-08-31T10:18:02;20.40;99.90
41080;DHT22;26826;50.718;7.114;2023-08-31T10:28:10;22.70;99.90
41080;DHT22;26826;50.718;7.114;2023-08-31T10:38:19;22.60;99.90
41080;DHT22;26826;50.718;7.114;2023-08-31T10:48:23;22.50;99.50
41080;DHT22;26826;50.718;7.114;2023-08-31T10:58:31;22.40;99.10
41080;DHT22;26826;50.718;7.114;2023-08-31T11:08:31;22.30;99.20
41080;DHT22;26826;50.718;7.114;2023-08-31T11:18:32;20.70;99.90
41080;DHT22;26826;50.718;7.114;2023-08-31T11:28:33;21.30;99.90
41080;DHT22;26826;50.718;7.114;2023-08-31T11:38:34;20.80;99.90
41080;DHT22;26826;50.718;7.114;2023-08-31T11:48:35;22.90;99.90
41080;DHT22;26826;50.718;7.114;2023-08-31T11:58:42;24.70;96.60
41080;DHT22;26826;50.718;7.114;2023-08-31T12:08:43;23.50;96.20
41080;DHT22;26826;50.718;7.114;2023-08-31T12:18:43;22.10;97.60
41080;DHT22;26826;50.718;7.114;2023-08-31T12:28:43;21.60;99.90
41080;DHT22;26826;50.718;7.114;2023-08-31T12:38:44;20.90;99.90
41080;DHT22;26826;50.718;7.114;2023-08-31T12:48:44;21.10;99.90
41080;DHT22;26826;50.718;7.114;2023-08-31T12:58:45;22.40;99.90
41080;DHT22;26826;50.718;7.114;2023-08-31T13:08:45;24.20;99.90
41080;DHT22;26826;50.718;7.114;2023-08-31T13:18:46;22.20;99.90
41080;DHT22;26826;50.718;7.114;2023-08-31T13:28:46;21.90;99.90
41080;DHT22;26826;50.718;7.114;2023-08-31T13:38:47;22.50;99.90
41080;DHT22;26826;50.718;7.114;2023-08-31T13:48:47;21.90;99.90
41080;DHT22;26826;50.718;7.114;2023-08-31T13:58:48;21.70;99.90
41080;DHT22;26826;50.718;7.114;2023-08-31T14:08:49;21.90;99.90
41080;DHT22;26826;50.718;7.114;2023-08-31T14:18:49;20.80;99.90
41080;DHT22;26826;50.718;7.114;2023-08-31T14:28:50;20.60;99.90
41080;DHT22;26826;50.718;7.114;2023-08-31T14:38:51;19.40;99.90
41080;DHT22;26826;50.718;7.114;2023-08-31T14:48:52;18.70;99.90
41080;DHT22;26826;50.718;7.114;2023-08-31T14:58:52;18.50;99.90
41080;DHT22;26826;50.718;7.114;2023-08-31T15:08:52;18.90;99.90
41080;DHT22;26826;50.718;7.114;2023-08-31T15:18:53;18.80;99.90
41080;DHT22;26826;50.718;7.114;2023-08-31T15:28:53;18.90;99.90
41080;DHT22;26826;50.718;7.114;2023-08-31T15:38:54;18.70;99.90
41080;DHT22;26826;50.718;7.114;2023-08-31T15:48:54;18.50;99.90
41080;DHT22;26826;50.718;7.114;2023-08-31T15:58:55;18.60;99.90
41080;DHT22;26826;50.718;7.114;2023-08-31T16:08:55;18.70;99.90
41080;DHT22;26826;50.718;7.114;2023-08-31T16:18:56;18.60;99.90
41080;DHT22;26826;50.718;7.114;2023-08-31T16:28:56;18.60;99.90
41080;DHT22;26826;50.718;7.114;2023-08-31T16:38:57;18.70;99.90
41080;DHT22;26826;50.718;7.114;2023-08-31T16:48:57;18.70;99.90
41080;DHT22;26826;50.718;7.114;2023-08-31T16:58:59;18.80;99.90
41080;DHT22;26826;50.718;7.114;2023-08-31T17:08:59;18.70;99.90
41080;DHT22;26826;50.718;7.114;2023-08-31T17:18:59;18.70;99.90
41080;DHT22;26826;50.718;7.114;2023-08-31T17:29:00;18.60;99.90
41080;DHT22;26826;50.718;7.114;2023-08-31T17:39:00;18.40;99.90
41080;DHT22;26826;50.718;7.114;2023-08-31T17:49:01;18.30;99.90
41080;DHT22;26826;50.718;7.114;2023-08-31T17:59:02;18.20;99.90
41080;DHT22;26826;50.718;7.114;2023-08-31T18:09:04;18.00;99.90
41080;DHT22;26826;50.718;7.114;2023-08-31T18:19:06;17.80;99.90
41080;DHT22;26826;50.718;7.114;2023-08-31T18:29:06;17.70;99.90
41080;DHT22;26826;50.718;7.114;2023-08-31T18:39:07;17.50;99.90
41080;DHT22;26826;50.718;7.114;2023-08-31T18:49:07;17.30;99.90
41080;DHT22;26826;50.718;7.114;2023-08-31T18:59:08;17.20;99.90
41080;DHT22;26826;50.718;7.114;2023-08-31T19:09:08;17.00;99.90
41080;DHT22;26826;50.718;7.114;2023-08-31T19:19:09;16.80;99.90
41080;DHT22;26826;50.718;7.114;2023-08-31T19:29:10;16.80;99.90
41080;DHT22;26826;50.718;7.114;2023-08-31T19:43:34;16.60;99.90
41080;DHT22;26826;50.718;7.114;2023-08-31T19:53:34;16.40;99.90
41080;DHT22;26826;50.718;7.114;2023-08-31T20:03:36;16.30;99.90
41080;DHT22;26826;50.718;7.114;2023-08-31T20:13:38;16.40;99.90
41080;DHT22;26826;50.718;7.114;2023-08-31T20:23:38;16.10;99.90
41080;DHT22;26826;50.718;7.114;2023-08-31T20:33:39;15.70;99.90
41080;DHT22;26826;50.718;7.114;2023-08-31T20:43:40;15.50;99.90
41080;DHT22;26826;50.718;7.114;2023-08-31T20:53:40;15.30;99.90
41080;DHT22;26826;50.718;7.114;2023-08-31T21:03:42;15.40;99.90
41080;DHT22;26826;50.718;7.114;2023-08-31T21:13:43;15.40;99.90
41080;DHT22;26826;50.718;7.114;2023-08-31T21:23:43;15.20;99.90
41080;DHT22;26826;50.718;7.114;2023-08-31T21:33:44;15.20;99.90
41080;DHT22;26826;50.718;7.114;2023-08-31T21:43:44;15.10;99.90
41080;DHT22;26826;50.718;7.114;2023-08-31T21:53:45;15.20;99.90
41080;DHT22;26826;50.718;7.114;2023-08-31T22:03:45;15.20;99.90
41080;DHT22;26826;50.718;7.114;2023-08-31T22:13:46;15.30;99.90
41080;DHT22;26826;50.718;7.114;2023-08-31T22:23:46;15.30;99.90
41080;DHT22;26826;50.718;7.114;2023-08-31T22:33:47;15.40;99.90
41080;DHT22;26826;50.718;7.114;2023-08-31T22:43:47;15.50;99.90
41080;DHT22;26826;50.718;7.114;2023-08-31T22:53:47;15.50;99.90
41080;DHT22;26826;50.718;7.114;2023-08-31T23:03:48;15.60;99.90
41080;DHT22;26826;50.718;7.114;2023-08-31T23:13:48;15.60;99.90
41080;DHT22;26826;50.718;7.114;2023-08-31T23:23:50;15.60;99.90
41080;DHT22;26826;50.718;7.114;2023-08-31T23:33:50;15.50;99.90
41080;DHT22;26826;50.718;7.114;2023-08-31T23:43:51;15.60;99.90
41080;DHT22;26826;50.718;7.114;2023-08-31T23:53:53;15.50;99.90
